createdAt,value
2018-12-02T00:01:11.350Z,97621.91
2018-12-02T00:03:40.521Z,97621.97
2018-12-02T00:06:09.872Z,97618.44
2018-12-02T00:08:39.061Z,97617.20
2018-12-02T00:11:08.200Z,97612.23
2018-12-02T00:13:37.870Z,97605.60
2018-12-02T00:16:07.690Z,97605.90
2018-12-02T00:18:36.851Z,97611.36
2018-12-02T00:21:07.066Z,97610.48
2018-12-02T00:23:36.450Z,97599.44
2018-12-02T00:26:05.805Z,97602.27
2018-12-02T00:28:34.976Z,97594.36
2018-12-02T00:31:04.117Z,97593.36
2018-12-02T00:33:33.275Z,97585.34
2018-12-02T00:36:02.765Z,97591.09
2018-12-02T00:38:31.980Z,97583.92
2018-12-02T00:41:01.135Z,97579.27
2018-12-02T00:43:30.934Z,97582.00
2018-12-02T00:46:00.065Z,97580.14
2018-12-02T00:48:29.233Z,97573.12
2018-12-02T00:50:58.441Z,97573.77
2018-12-02T00:53:27.692Z,97575.66
2018-12-02T00:56:01.124Z,97574.27
2018-12-02T00:58:30.372Z,97563.08
2018-12-02T01:00:59.777Z,97566.36
2018-12-02T01:03:29.604Z,97568.77
2018-12-02T01:05:58.776Z,97563.88
2018-12-02T01:08:27.973Z,97571.80
2018-12-02T01:10:57.108Z,97561.50
2018-12-02T01:13:26.564Z,97558.83
2018-12-02T01:15:56.336Z,97552.00
2018-12-02T01:18:25.494Z,97544.27
2018-12-02T01:20:54.691Z,97539.08
2018-12-02T01:23:23.901Z,97532.14
2018-12-02T01:25:53.025Z,97534.09
2018-12-02T01:28:22.272Z,97534.44
2018-12-02T01:30:51.454Z,97532.16
2018-12-02T01:33:20.693Z,97530.08
2018-12-02T01:35:50.606Z,97523.22
2018-12-02T01:38:20.083Z,97520.48
2018-12-02T01:40:49.233Z,97506.55
2018-12-02T01:43:19.010Z,97512.27
2018-12-02T01:45:48.204Z,97506.23
2018-12-02T01:48:17.361Z,97502.83
2018-12-02T01:50:47.724Z,97505.48
2018-12-02T01:53:16.853Z,97500.54
2018-12-02T01:55:46.089Z,97503.37
2018-12-02T01:58:15.819Z,97502.05
2018-12-02T02:00:44.999Z,97500.30
2018-12-02T02:03:15.688Z,97492.29
2018-12-02T02:05:44.981Z,97486.91
2018-12-02T02:08:14.172Z,97481.34
2018-12-02T02:10:43.774Z,97488.23
2018-12-02T02:13:13.076Z,97491.66
2018-12-02T02:15:42.232Z,97474.64
2018-12-02T02:18:12.684Z,97474.94
2018-12-02T02:20:41.813Z,97471.25
2018-12-02T02:23:10.932Z,97464.50
2018-12-02T02:25:40.109Z,97455.02
2018-12-02T02:28:09.466Z,97463.34
2018-12-02T02:30:39.149Z,97454.97
2018-12-02T02:33:08.386Z,97456.88
2018-12-02T02:35:38.087Z,97445.88
2018-12-02T02:38:08.224Z,97441.66
2018-12-02T02:40:37.417Z,97439.81
2018-12-02T02:43:06.920Z,97438.76
2018-12-02T02:45:36.074Z,97438.98
2018-12-02T02:48:05.684Z,97432.50
2018-12-02T02:50:35.032Z,97420.95
2018-12-02T02:53:04.185Z,97426.14
2018-12-02T02:55:33.342Z,97419.69
2018-12-02T02:58:02.553Z,97420.20
2018-12-02T03:00:32.304Z,97423.03
2018-12-02T03:03:01.560Z,97421.73
2018-12-02T03:05:31.220Z,97415.69
2018-12-02T03:08:00.356Z,97412.44
2018-12-02T03:10:29.496Z,97405.11
2018-12-02T03:12:58.765Z,97400.73
2018-12-02T03:15:27.948Z,97398.30
2018-12-02T03:17:57.093Z,97410.14
2018-12-02T03:20:26.271Z,97406.97
2018-12-02T03:22:56.266Z,97406.91
2018-12-02T03:25:26.760Z,97398.41
2018-12-02T03:27:56.586Z,97388.96
2018-12-02T03:30:26.807Z,97386.45
2018-12-02T03:32:55.950Z,97384.50
2018-12-02T03:35:26.195Z,97370.22
2018-12-02T03:37:57.256Z,97363.67
2018-12-02T03:40:28.720Z,97357.75
2018-12-02T03:42:58.500Z,97356.11
2018-12-02T03:45:28.565Z,97358.94
2018-12-02T03:47:58.602Z,97353.81
2018-12-02T03:50:28.389Z,97346.58
2018-12-02T03:52:57.524Z,97340.98
2018-12-02T03:55:26.633Z,97334.17
2018-12-02T03:57:55.985Z,97326.20
2018-12-02T04:00:26.319Z,97313.88
2018-12-02T04:02:57.614Z,97314.11
2018-12-02T04:05:27.419Z,97310.57
2018-12-02T04:07:56.892Z,97315.25
2018-12-02T04:10:26.044Z,97314.97
2018-12-02T04:12:55.150Z,97306.22
2018-12-02T04:15:25.477Z,97315.13
2018-12-02T04:17:54.705Z,97309.40
2018-12-02T04:20:24.064Z,97294.48
2018-12-02T04:22:53.761Z,97289.91
2018-12-02T04:25:27.388Z,97290.50
2018-12-02T04:27:56.505Z,97290.34
2018-12-02T04:30:26.076Z,97287.97
2018-12-02T04:32:55.331Z,97279.87
2018-12-02T04:35:25.977Z,97282.43
2018-12-02T04:37:55.327Z,97277.14
2018-12-02T04:40:24.447Z,97274.14
2018-12-02T04:42:53.945Z,97268.30
2018-12-02T04:45:23.124Z,97258.72
2018-12-02T04:47:52.280Z,97268.53
2018-12-02T04:50:23.673Z,97262.56
2018-12-02T04:52:52.808Z,97262.14
2018-12-02T04:55:21.981Z,97265.21
2018-12-02T04:57:51.973Z,97261.71
2018-12-02T05:00:21.672Z,97254.56
2018-12-02T05:02:52.246Z,97249.72
2018-12-02T05:05:23.744Z,97259.84
2018-12-02T05:07:53.504Z,97252.73
2018-12-02T05:10:23.132Z,97254.37
2018-12-02T05:12:52.628Z,97255.92
2018-12-02T05:15:23.032Z,97256.97
2018-12-02T05:17:58.891Z,97249.14
2018-12-02T05:20:28.588Z,97246.16
2018-12-02T05:22:57.721Z,97237.84
2018-12-02T05:25:26.840Z,97239.30
2018-12-02T05:27:56.016Z,97236.16
2018-12-02T05:30:25.492Z,97233.87
2018-12-02T05:32:54.417Z,97237.05
2018-12-02T05:35:23.592Z,97233.87
2018-12-02T05:37:52.790Z,97228.97
2018-12-02T05:40:23.894Z,97230.19
2018-12-02T05:42:54.149Z,97227.37
2018-12-02T05:45:24.965Z,97226.70
2018-12-02T05:47:54.085Z,97225.55
2018-12-02T05:50:24.416Z,97225.38
2018-12-02T05:52:58.776Z,97222.97
2018-12-02T05:55:31.880Z,97218.80
2018-12-02T05:58:01.015Z,97227.34
2018-12-02T06:00:30.128Z,97222.07
2018-12-02T06:02:59.351Z,97218.07
2018-12-02T06:05:35.100Z,97215.78
2018-12-02T06:08:04.233Z,97219.81
2018-12-02T06:10:33.367Z,97226.56
2018-12-02T06:13:02.562Z,97223.22
2018-12-02T06:15:32.439Z,97222.59
2018-12-02T06:18:01.559Z,97215.12
2018-12-02T06:20:30.677Z,97215.66
2018-12-02T06:22:59.821Z,97208.98
2018-12-02T06:25:29.361Z,97202.66
2018-12-02T06:27:58.620Z,97198.94
2018-12-02T06:30:28.620Z,97194.67
2018-12-02T06:33:05.306Z,97189.24
2018-12-02T06:35:34.499Z,97190.82
2018-12-02T06:38:05.433Z,97193.93
2018-12-02T06:40:34.312Z,97186.66
2018-12-02T06:43:03.484Z,97185.62
2018-12-02T06:45:32.616Z,97190.48
2018-12-02T06:48:02.657Z,97186.52
2018-12-02T06:50:31.970Z,97180.86
2018-12-02T06:53:01.127Z,97180.48
2018-12-02T06:55:36.876Z,97183.99
2018-12-02T06:58:50.060Z,97180.56
2018-12-02T07:01:26.348Z,97171.49
2018-12-02T07:04:08.851Z,97169.88
2018-12-02T07:06:37.992Z,97165.18
2018-12-02T07:09:09.371Z,97165.34
2018-12-02T07:11:38.552Z,97160.30
2018-12-02T07:14:07.663Z,97157.42
2018-12-02T07:16:37.520Z,97157.42
2018-12-02T07:19:09.726Z,97153.66
2018-12-02T07:21:38.900Z,97155.83
2018-12-02T07:24:09.785Z,97159.86
2018-12-02T07:26:38.925Z,97154.13
2018-12-02T07:29:08.051Z,97158.25
2018-12-02T07:31:38.103Z,97162.11
2018-12-02T07:34:07.356Z,97161.64
2018-12-02T07:36:36.812Z,97163.14
2018-12-02T07:41:25.504Z,97158.20
2018-12-02T07:43:54.625Z,97154.91
2018-12-02T07:46:23.804Z,97156.41
2018-12-02T07:48:53.719Z,97153.56
2018-12-02T07:51:22.834Z,97156.16
2018-12-02T07:53:52.041Z,97158.48
2018-12-02T07:56:21.166Z,97158.06
2018-12-02T07:58:50.507Z,97157.59
2018-12-02T08:01:19.626Z,97154.80
2018-12-02T08:03:48.776Z,97149.08
2018-12-02T08:06:17.912Z,97156.00
2018-12-02T08:08:47.639Z,97145.26
2018-12-02T08:11:16.812Z,97142.28
2018-12-02T08:13:45.927Z,97149.34
2018-12-02T08:16:15.069Z,97147.02
2018-12-02T08:18:46.292Z,97146.25
2018-12-02T08:21:15.680Z,97148.29
2018-12-02T08:23:44.797Z,97148.19
2018-12-02T08:26:13.964Z,97140.14
2018-12-02T08:28:43.118Z,97141.91
2018-12-02T08:31:12.800Z,97135.93
2018-12-02T08:33:42.819Z,97126.50
2018-12-02T08:36:11.969Z,97135.56
2018-12-02T08:38:41.136Z,97133.31
2018-12-02T08:41:10.873Z,97126.48
2018-12-02T08:43:41.181Z,97131.73
2018-12-02T08:46:09.156Z,97138.57
2018-12-02T08:48:38.707Z,97143.13
2018-12-02T08:51:07.620Z,97143.04
2018-12-02T08:53:36.779Z,97143.31
2018-12-02T08:56:06.345Z,97143.50
2018-12-02T08:58:35.457Z,97145.05
2018-12-02T09:01:05.353Z,97145.14
2018-12-02T09:03:34.500Z,97141.61
2018-12-02T09:06:03.680Z,97143.16
2018-12-02T09:08:32.900Z,97144.89
2018-12-02T09:11:02.260Z,97141.57
2018-12-02T09:13:31.383Z,97143.30
2018-12-02T09:16:00.524Z,97142.25
2018-12-02T09:18:29.764Z,97138.94
2018-12-02T09:21:00.483Z,97143.97
2018-12-02T09:23:29.702Z,97137.43
2018-12-02T09:25:58.511Z,97132.13
2018-12-02T09:28:27.296Z,97127.82
2018-12-02T09:30:56.833Z,97127.11
2018-12-02T09:33:25.644Z,97121.06
2018-12-02T09:35:55.024Z,97129.64
2018-12-02T09:38:24.152Z,97123.30
2018-12-02T09:40:53.287Z,97130.05
2018-12-02T09:43:23.235Z,97127.01
2018-12-02T09:45:52.020Z,97116.53
2018-12-02T09:48:21.394Z,97121.56
2018-12-02T09:50:52.588Z,97101.23
2018-12-02T09:53:21.740Z,97101.23
2018-12-02T09:55:53.089Z,97098.91
2018-12-02T09:58:28.419Z,97096.24
2018-12-02T10:01:02.934Z,97083.21
2018-12-02T10:03:33.569Z,97087.41
2018-12-02T10:06:03.747Z,97091.17
2018-12-02T10:08:57.580Z,97083.14
2018-12-02T10:14:26.357Z,97087.98
2018-12-02T10:20:10.916Z,97068.02
2018-12-02T10:22:40.896Z,97069.28
2018-12-02T10:25:14.990Z,97064.92
2018-12-02T10:27:44.993Z,97067.85
2018-12-02T10:30:22.551Z,97064.50
2018-12-02T10:32:52.816Z,97060.54
2018-12-02T10:35:23.267Z,97070.02
2018-12-02T10:37:53.476Z,97071.89
2018-12-02T10:40:26.271Z,97083.50
2018-12-02T10:42:55.718Z,97086.20
2018-12-02T10:45:27.225Z,97094.20
2018-12-02T10:48:00.917Z,97097.06
2018-12-02T10:50:38.561Z,97090.62
2018-12-02T10:53:12.844Z,97093.84
2018-12-02T10:55:51.963Z,97089.11
2018-12-02T10:58:26.176Z,97090.16
2018-12-02T11:01:08.449Z,97095.82
2018-12-02T11:03:37.664Z,97096.31
2018-12-02T11:06:06.992Z,97090.23
2018-12-02T11:08:36.531Z,97087.35
2018-12-02T11:11:06.384Z,97087.94
2018-12-02T11:13:35.734Z,97094.27
2018-12-02T11:16:05.452Z,97087.63
2018-12-02T11:18:34.662Z,97090.95
2018-12-02T11:21:03.990Z,97081.12
2018-12-02T11:23:34.363Z,97086.28
2018-12-02T11:26:02.404Z,97093.83
2018-12-02T11:28:33.524Z,97091.34
2018-12-02T11:31:03.204Z,97098.70
2018-12-02T11:33:32.328Z,97101.04
2018-12-02T11:36:01.559Z,97088.65
2018-12-02T11:38:30.717Z,97089.09
2018-12-02T11:41:00.532Z,97082.67
2018-12-02T11:43:29.788Z,97083.08
2018-12-02T11:45:58.985Z,97085.28
2018-12-02T11:48:28.813Z,97087.88
2018-12-02T11:50:58.736Z,97085.48
2018-12-02T11:53:27.909Z,97082.55
2018-12-02T11:55:57.190Z,97077.41
2018-12-02T11:58:27.403Z,97079.38
2018-12-02T12:00:56.724Z,97082.97
2018-12-02T12:03:26.657Z,97080.21
2018-12-02T12:05:56.405Z,97084.78
2018-12-02T12:08:25.613Z,97093.17
2018-12-02T12:10:55.546Z,97085.05
2018-12-02T12:13:25.375Z,97078.78
2018-12-02T12:15:54.616Z,97085.52
2018-12-02T12:18:25.073Z,97080.75
2018-12-02T12:20:54.944Z,97075.70
2018-12-02T12:23:24.367Z,97070.32
2018-12-02T12:25:54.621Z,97077.77
2018-12-02T12:28:23.786Z,97079.66
2018-12-02T12:30:53.409Z,97078.72
2018-12-02T12:33:23.207Z,97079.31
2018-12-02T12:35:52.781Z,97050.39
2018-12-02T12:38:22.466Z,97080.93
2018-12-02T12:40:52.857Z,97088.44
2018-12-02T12:43:25.163Z,97079.11
2018-12-02T12:45:54.401Z,97083.72
2018-12-02T12:48:23.516Z,97088.20
2018-12-02T12:50:52.904Z,97074.45
2018-12-02T12:53:22.531Z,97076.20
2018-12-02T12:55:52.396Z,97080.56
2018-12-02T12:58:23.179Z,97077.20
2018-12-02T13:00:53.104Z,97076.31
2018-12-02T13:03:23.532Z,97075.99
2018-12-02T13:05:52.864Z,97069.84
2018-12-02T13:08:22.249Z,97077.96
2018-12-02T13:10:51.531Z,97075.85
2018-12-02T13:13:21.949Z,97075.79
2018-12-02T13:15:50.049Z,97080.11
2018-12-02T13:18:19.296Z,97082.05
2018-12-02T13:20:55.880Z,97085.96
2018-12-02T13:23:24.987Z,97080.70
2018-12-02T13:25:54.108Z,97072.02
2018-12-02T13:28:23.218Z,97080.82
2018-12-02T13:30:52.517Z,97093.09
2018-12-02T13:33:22.675Z,97097.51
2018-12-02T13:35:52.144Z,97091.41
2018-12-02T13:38:21.469Z,97098.67
2018-12-02T13:40:50.937Z,97090.63
2018-12-02T13:43:22.632Z,97091.48
2018-12-02T13:45:53.059Z,97084.23
2018-12-02T13:48:22.385Z,97101.22
2018-12-02T13:50:51.646Z,97093.97
2018-12-02T13:53:21.552Z,97095.78
2018-12-02T13:55:51.241Z,97102.94
2018-12-02T13:58:20.484Z,97114.82
2018-12-02T14:00:50.401Z,97120.28
2018-12-02T14:03:20.351Z,97119.21
2018-12-02T14:05:50.168Z,97126.05
2018-12-02T14:08:19.296Z,97131.27
2018-12-02T14:10:48.420Z,97137.14
2018-12-02T14:13:24.023Z,97140.50
2018-12-02T14:17:05.995Z,97147.59
2018-12-02T14:19:35.953Z,97143.94
2018-12-02T14:22:06.574Z,97147.84
2018-12-02T14:24:35.833Z,97150.46
2018-12-02T14:27:06.545Z,97150.81
2018-12-02T14:29:41.770Z,97159.86
2018-12-02T14:32:13.426Z,97158.35
2018-12-02T14:34:42.793Z,97160.36
2018-12-02T14:37:12.511Z,97160.94
2018-12-02T14:39:41.751Z,97154.98
2018-12-02T14:42:10.872Z,97162.77
2018-12-02T14:44:40.040Z,97169.45
2018-12-02T14:47:09.155Z,97162.80
2018-12-02T14:49:38.276Z,97163.41
2018-12-02T14:52:08.060Z,97172.84
2018-12-02T14:54:38.118Z,97168.73
2018-12-02T14:57:07.237Z,97174.64
2018-12-02T14:59:36.336Z,97166.48
2018-12-02T15:02:06.544Z,97178.84
2018-12-02T15:04:36.009Z,97177.12
2018-12-02T15:07:05.941Z,97178.40
2018-12-02T15:09:35.084Z,97184.64
2018-12-02T15:12:04.208Z,97178.78
2018-12-02T15:14:34.057Z,97174.67
2018-12-02T15:17:03.332Z,97169.98
2018-12-02T15:19:33.178Z,97175.72
2018-12-02T15:22:02.303Z,97176.20
2018-12-02T15:24:31.449Z,97186.30
2018-12-02T15:27:01.204Z,97185.05
2018-12-02T15:29:30.336Z,97191.58
2018-12-02T15:31:59.488Z,97184.02
2018-12-02T15:34:29.381Z,97179.41
2018-12-02T15:36:59.076Z,97177.36
2018-12-02T15:39:28.509Z,97175.44
2018-12-02T15:41:59.160Z,97176.14
2018-12-02T15:44:29.066Z,97171.77
2018-12-02T15:46:58.948Z,97170.54
2018-12-02T15:49:29.361Z,97175.94
2018-12-02T15:51:58.508Z,97170.34
2018-12-02T15:54:27.821Z,97191.84
2018-12-02T15:56:58.532Z,97195.40
2018-12-02T15:59:27.893Z,97187.95
2018-12-02T16:01:57.036Z,97196.83
2018-12-02T16:04:26.495Z,97194.05
2018-12-02T16:06:56.647Z,97199.09
2018-12-02T16:09:25.915Z,97192.66
2018-12-02T16:11:55.070Z,97196.17
2018-12-02T16:14:24.527Z,97200.79
2018-12-02T16:16:53.800Z,97200.21
2018-12-02T16:19:22.972Z,97205.31
2018-12-02T16:21:52.094Z,97198.47
2018-12-02T16:24:21.932Z,97202.29
2018-12-02T16:26:51.098Z,97197.81
2018-12-02T16:29:20.734Z,97199.31
2018-12-02T16:31:49.954Z,97192.99
2018-12-02T16:34:19.094Z,97193.77
2018-12-02T16:36:48.246Z,97198.22
2018-12-02T16:39:18.072Z,97205.52
2018-12-02T16:41:47.264Z,97204.58
2018-12-02T16:44:16.387Z,97211.80
2018-12-02T16:46:46.076Z,97207.14
2018-12-02T16:49:15.263Z,97205.81
2018-12-02T16:51:44.455Z,97200.57
2018-12-02T16:54:13.816Z,97216.47
2018-12-02T16:56:43.143Z,97222.57
2018-12-02T16:59:33.815Z,97220.45
2018-12-02T17:02:06.358Z,97217.25
2018-12-02T17:04:35.513Z,97220.03
2018-12-02T17:07:05.176Z,97217.28
2018-12-02T17:09:34.308Z,97218.20
2018-12-02T17:12:03.469Z,97223.85
2018-12-02T17:14:38.537Z,97223.80
2018-12-02T17:17:02.503Z,97224.43
2018-12-02T17:19:32.300Z,97221.95
2018-12-02T17:22:01.488Z,97224.16
2018-12-02T17:24:30.626Z,97224.23
2018-12-02T17:27:00.268Z,97224.31
2018-12-02T17:29:29.465Z,97228.13
2018-12-02T17:32:07.880Z,97236.82
2018-12-02T17:34:37.200Z,97227.33
2018-12-02T17:37:14.196Z,97229.25
2018-12-02T17:39:48.260Z,97221.61
2018-12-02T17:42:17.996Z,97221.23
2018-12-02T17:44:47.574Z,97225.55
2018-12-02T17:47:16.751Z,97216.63
2018-12-02T17:49:46.061Z,97223.00
2018-12-02T17:52:15.188Z,97211.41
2018-12-02T17:54:45.158Z,97211.53
2018-12-02T17:57:14.983Z,97213.66
2018-12-02T17:59:44.185Z,97212.53
2018-12-02T18:02:13.797Z,97212.69
2018-12-02T18:04:43.596Z,97214.95
2018-12-02T18:07:12.865Z,97214.53
2018-12-02T18:09:42.048Z,97212.55
2018-12-02T18:12:11.276Z,97212.98
2018-12-02T18:14:40.652Z,97220.83
2018-12-02T18:17:10.135Z,97214.25
2018-12-02T18:19:39.394Z,97213.83
2018-12-02T18:22:09.172Z,97216.15
2018-12-02T18:24:38.346Z,97215.52
2018-12-02T18:27:07.533Z,97208.14
2018-12-02T18:29:37.103Z,97199.94
2018-12-02T18:32:06.392Z,97206.88
2018-12-02T18:34:36.324Z,97206.02
2018-12-02T18:37:08.096Z,97211.98
2018-12-02T18:39:37.432Z,97222.03
2018-12-02T18:42:09.352Z,97230.38
2018-12-02T18:44:38.537Z,97220.03
2018-12-02T18:47:08.081Z,97218.20
2018-12-02T18:49:37.180Z,97223.58
2018-12-02T18:52:07.324Z,97218.68
2018-12-02T18:54:36.465Z,97221.73
2018-12-02T18:57:05.952Z,97220.88
2018-12-02T18:59:35.068Z,97221.72
2018-12-02T19:02:04.208Z,97219.33
2018-12-02T19:04:33.645Z,97218.05
2018-12-02T19:07:02.764Z,97215.51
2018-12-02T19:09:33.117Z,97213.00
2018-12-02T19:12:04.740Z,97208.25
2018-12-02T19:14:36.183Z,97202.19
2018-12-02T19:17:05.662Z,97209.83
2018-12-02T19:19:35.364Z,97207.28
2018-12-02T19:22:04.600Z,97207.55
2018-12-02T19:24:33.764Z,97206.28
2018-12-02T19:27:02.912Z,97216.20
2018-12-02T19:29:32.032Z,97212.23
2018-12-02T19:32:02.672Z,97214.23
2018-12-02T19:34:32.720Z,97212.11
2018-12-02T19:37:06.099Z,97208.29
2018-12-02T19:39:35.305Z,97200.72
2018-12-02T19:42:04.860Z,97202.62
2018-12-02T19:44:34.835Z,97202.97
2018-12-02T19:47:05.724Z,97206.04
2018-12-02T19:49:36.130Z,97203.91
2018-12-02T19:52:04.601Z,97204.88
2018-12-02T19:54:33.752Z,97205.19
2018-12-02T19:57:03.578Z,97206.59
2018-12-02T19:59:33.502Z,97211.34
2018-12-02T20:02:02.784Z,97200.06
2018-12-02T20:04:32.908Z,97202.55
2018-12-02T20:07:02.403Z,97205.38
2018-12-02T20:09:31.533Z,97202.61
2018-12-02T20:12:00.780Z,97194.28
2018-12-02T20:14:31.048Z,97201.78
2018-12-02T20:17:00.236Z,97206.96
2018-12-02T20:19:37.307Z,97204.18
2018-12-02T20:22:06.990Z,97206.25
2018-12-02T20:24:40.097Z,97204.25
2018-12-02T20:27:09.894Z,97208.38
2018-12-02T20:29:39.746Z,97208.14
2018-12-02T20:32:11.115Z,97215.88
2018-12-02T20:34:40.518Z,97218.42
2018-12-02T20:37:10.393Z,97212.91
2018-12-02T20:39:40.018Z,97214.03
2018-12-02T20:42:09.296Z,97223.38
2018-12-02T20:44:39.264Z,97217.05
2018-12-02T20:47:08.392Z,97213.89
2018-12-02T20:49:38.315Z,97218.91
2018-12-02T20:52:08.737Z,97216.94
2018-12-02T20:54:39.523Z,97223.85
2018-12-02T20:57:09.771Z,97210.06
2018-12-02T20:59:40.100Z,97207.02
2018-12-02T21:03:13.191Z,97205.02
2018-12-02T21:06:14.360Z,97196.67
2018-12-02T21:08:44.065Z,97185.78
2018-12-02T21:11:14.251Z,97188.17
2018-12-02T21:13:43.468Z,97188.75
2018-12-02T21:16:13.378Z,97200.41
2018-12-02T21:18:43.300Z,97187.48
2018-12-02T21:21:13.628Z,97180.41
2018-12-02T21:23:42.763Z,97183.53
2018-12-02T21:26:12.868Z,97176.93
2018-12-02T21:28:43.589Z,97183.57
2018-12-02T21:31:14.528Z,97192.45
2018-12-02T21:33:43.868Z,97188.83
2018-12-02T21:36:13.062Z,97190.02
2018-12-02T21:38:42.269Z,97200.52
2018-12-02T21:41:11.411Z,97196.81
2018-12-02T21:43:41.061Z,97196.96
2018-12-02T21:46:10.475Z,97199.66
2018-12-02T21:48:39.758Z,97195.13
2018-12-02T21:51:09.644Z,97196.20
2018-12-02T21:53:38.881Z,97198.24
2018-12-02T21:56:08.992Z,97204.62
2018-12-02T21:58:38.291Z,97202.83
2018-12-02T22:01:12.839Z,97201.26
2018-12-02T22:03:42.645Z,97203.02
2018-12-02T22:06:12.379Z,97202.14
2018-12-02T22:08:41.547Z,97199.89
2018-12-02T22:11:11.390Z,97208.96
2018-12-02T22:13:43.407Z,97201.21
2018-12-02T22:16:09.680Z,97190.23
2018-12-02T22:18:38.816Z,97199.46
2018-12-02T22:21:08.640Z,97201.45
2018-12-02T22:23:38.056Z,97190.97
2018-12-02T22:26:07.284Z,97194.80
2018-12-02T22:28:36.487Z,97191.73
2018-12-02T22:31:07.260Z,97196.77
2018-12-02T22:33:37.730Z,97192.88
2018-12-02T22:36:13.941Z,97198.58
2018-12-02T22:38:39.205Z,97200.39
2018-12-02T22:41:08.540Z,97204.95
2018-12-02T22:43:38.549Z,97213.09
2018-12-02T22:46:09.009Z,97200.33
2018-12-02T22:48:38.216Z,97195.91
2018-12-02T22:51:07.629Z,97191.17
2018-12-02T22:53:37.432Z,97185.16
2018-12-02T22:56:08.053Z,97190.49
2018-12-02T22:58:37.490Z,97186.57
2018-12-02T23:01:12.107Z,97175.16
2018-12-02T23:03:41.668Z,97174.39
2018-12-02T23:06:10.798Z,97172.11
2018-12-02T23:08:40.107Z,97176.34
2018-12-02T23:11:09.380Z,97174.80
2018-12-02T23:13:38.743Z,97185.53
2018-12-02T23:16:08.348Z,97179.99
2018-12-02T23:18:37.764Z,97175.94
2018-12-02T23:21:07.401Z,97181.61
2018-12-02T23:23:36.760Z,97183.72
2018-12-02T23:26:06.913Z,97176.53
2018-12-02T23:28:36.646Z,97172.20
2018-12-02T23:31:06.392Z,97171.73
2018-12-02T23:33:35.688Z,97172.94
2018-12-02T23:36:05.244Z,97166.63
2018-12-02T23:38:34.944Z,97174.45
2018-12-02T23:41:04.094Z,97163.24
2018-12-02T23:43:33.232Z,97169.95
2018-12-02T23:46:02.359Z,97159.92
2018-12-02T23:48:31.905Z,97155.32
2018-12-02T23:51:01.409Z,97155.22
2018-12-02T23:53:30.573Z,97151.77
2018-12-02T23:56:00.257Z,97165.89
2018-12-02T23:58:29.456Z,97159.52
